Time;durP1;ratioP1;P1;durP2;ratioP2;P2;SDS_P1;SDS_P2;PMS_P1;PMS_P2;Temp;Humidity;BMP_temperature;BMP_pressure;BME280_temperature;BME280_humidity;BME280_pressure;Samples;Min_cycle;Max_cycle;Signal;HPM_P1;HPM_P2
2021/10/24 00:01:46;;;;;;;3.88;1.58;;;;;;;5.48;100.00;102086.66;5244571;28;20056;-78
2021/10/24 00:04:16;;;;;;;4.38;1.42;;;;;;;5.49;100.00;102083.19;5245199;28;20028;-78
2021/10/24 00:06:47;;;;;;;5.43;1.58;;;;;;;5.42;100.00;102086.59;5244721;28;20030;-78
2021/10/24 00:09:17;;;;;;;4.90;1.83;;;;;;;5.38;100.00;102084.84;5244404;28;20020;-78
2021/10/24 00:11:47;;;;;;;10.75;1.98;;;;;;;5.53;100.00;102080.66;5244965;28;20016;-78
2021/10/24 00:14:18;;;;;;;6.25;1.90;;;;;;;5.46;100.00;102083.19;5244831;28;20016;-78
2021/10/24 00:16:48;;;;;;;4.10;1.70;;;;;;;5.36;100.00;102086.53;5245173;28;20063;-78
2021/10/24 00:19:18;;;;;;;4.55;1.88;;;;;;;5.14;100.00;102084.56;5244551;28;20116;-78
2021/10/24 00:21:49;;;;;;;3.63;1.50;;;;;;;5.10;100.00;102080.22;5245171;28;20021;-78
2021/10/24 00:24:19;;;;;;;4.40;1.52;;;;;;;5.09;100.00;102081.06;5244151;28;20052;-78
2021/10/24 00:26:49;;;;;;;5.50;1.70;;;;;;;5.00;100.00;102082.69;5240797;28;20499;-78
2021/10/24 00:29:20;;;;;;;8.82;1.67;;;;;;;5.01;100.00;102082.69;5244987;28;20063;-78
2021/10/24 00:31:50;;;;;;;4.15;1.48;;;;;;;4.99;100.00;102084.41;5244862;28;20875;-78
2021/10/24 00:34:20;;;;;;;3.53;1.73;;;;;;;4.99;100.00;102079.22;5244957;28;20055;-78
2021/10/24 00:36:50;;;;;;;4.68;1.40;;;;;;;4.81;100.00;102081.59;5244503;28;20020;-78
2021/10/24 00:39:21;;;;;;;5.78;1.60;;;;;;;4.86;100.00;102079.97;5244969;28;20072;-78
2021/10/24 00:41:51;;;;;;;3.97;1.40;;;;;;;4.75;100.00;102078.06;5235693;28;20023;-78
2021/10/24 00:44:28;;;;;;;6.15;1.70;;;;;;;4.69;100.00;102071.13;5241592;28;20051;-78
2021/10/24 00:47:00;;;;;;;5.03;1.90;;;;;;;4.58;100.00;102064.94;5246838;28;20078;-78
2021/10/24 00:49:31;;;;;;;4.53;1.70;;;;;;;4.57;100.00;102070.09;5243723;28;20036;-78
2021/10/24 00:52:02;;;;;;;4.72;2.03;;;;;;;4.66;100.00;102071.06;5244177;28;20247;-78
2021/10/24 00:54:35;;;;;;;3.35;1.70;;;;;;;4.62;100.00;102068.44;5243598;28;20031;-78
2021/10/24 00:57:05;;;;;;;3.25;1.77;;;;;;;4.69;100.00;102058.19;5244121;28;20055;-78
2021/10/24 00:59:39;;;;;;;5.10;1.75;;;;;;;4.58;100.00;102062.34;5243540;28;20060;-78
2021/10/24 01:02:10;;;;;;;4.45;1.75;;;;;;;4.70;100.00;102059.91;5243671;28;20410;-78
2021/10/24 01:04:41;;;;;;;6.07;1.90;;;;;;;4.59;100.00;102061.50;5243304;28;20073;-78
2021/10/24 01:07:13;;;;;;;7.00;2.00;;;;;;;4.61;100.00;102052.03;5243307;28;20036;-78
2021/10/24 01:09:45;;;;;;;5.00;1.77;;;;;;;4.64;100.00;102062.41;5243929;28;20094;-78
2021/10/24 01:12:16;;;;;;;3.88;2.08;;;;;;;4.67;100.00;102052.09;5243566;28;20059;-78
2021/10/24 01:14:46;;;;;;;6.35;2.03;;;;;;;4.70;100.00;102053.84;5243412;28;20027;-78
2021/10/24 01:17:17;;;;;;;5.45;1.88;;;;;;;4.63;100.00;102057.25;5243648;28;20028;-77
2021/10/24 01:19:47;;;;;;;4.20;1.75;;;;;;;4.62;100.00;102051.19;5243193;28;20075;-78
2021/10/24 01:22:18;;;;;;;3.28;1.80;;;;;;;4.58;100.00;102044.22;5243138;28;20070;-78
2021/10/24 01:24:48;;;;;;;5.93;2.13;;;;;;;4.66;100.00;102045.19;5233159;28;20028;-78
2021/10/24 01:27:18;;;;;;;7.63;2.00;;;;;;;4.56;100.00;102050.22;5243309;28;20031;-78
2021/10/24 01:29:48;;;;;;;5.85;2.38;;;;;;;4.62;100.00;102047.75;5242892;28;20024;-78
2021/10/24 01:32:19;;;;;;;4.60;1.70;;;;;;;4.56;100.00;102043.34;5243324;28;20058;-78
2021/10/24 01:34:49;;;;;;;9.27;2.55;;;;;;;4.63;100.00;102045.16;5242376;28;20482;-78
2021/10/24 01:37:19;;;;;;;9.23;2.17;;;;;;;4.57;100.00;102042.50;5239180;28;20028;-78
2021/10/24 01:39:50;;;;;;;5.03;1.80;;;;;;;4.48;100.00;102037.19;5243330;28;20585;-78
2021/10/24 01:42:20;;;;;;;5.57;1.90;;;;;;;4.44;100.00;102037.16;5243273;28;20021;-78
2021/10/24 01:44:51;;;;;;;5.72;1.75;;;;;;;4.38;100.00;102034.47;5242582;28;20028;-78
2021/10/24 01:47:21;;;;;;;4.43;2.05;;;;;;;4.31;100.00;102033.53;5242676;28;20031;-78
2021/10/24 01:49:51;;;;;;;4.80;1.98;;;;;;;4.25;100.00;102038.63;5243260;28;20024;-78
2021/10/24 01:52:22;;;;;;;5.15;1.75;;;;;;;4.29;100.00;102035.22;5243230;28;20036;-78
2021/10/24 01:54:52;;;;;;;3.70;1.80;;;;;;;4.33;100.00;102042.16;5242516;28;20082;-78
2021/10/24 01:57:22;;;;;;;4.30;1.90;;;;;;;4.44;100.00;102032.84;5242446;28;20040;-78
2021/10/24 01:59:53;;;;;;;4.07;1.58;;;;;;;4.46;100.00;102032.88;5240694;28;20682;-78
2021/10/24 02:02:23;;;;;;;3.90;2.00;;;;;;;4.45;100.00;102034.56;5242973;28;20590;-78
2021/10/24 02:04:53;;;;;;;5.72;1.83;;;;;;;4.43;100.00;102025.06;5227319;28;20024;-78
2021/10/24 02:07:23;;;;;;;5.47;1.98;;;;;;;4.50;100.00;102030.31;5243332;28;20035;-78
2021/10/24 02:09:54;;;;;;;4.65;1.80;;;;;;;4.56;100.00;102033.00;5242840;28;20032;-78
2021/10/24 02:12:24;;;;;;;5.03;1.80;;;;;;;4.44;100.00;102031.97;5233097;28;20013;-78
2021/10/24 02:14:54;;;;;;;4.53;1.70;;;;;;;4.44;100.00;102034.56;5232588;28;20032;-78
2021/10/24 02:17:25;;;;;;;4.47;1.70;;;;;;;4.31;100.00;102027.50;5242338;28;20038;-78
2021/10/24 02:19:55;;;;;;;3.45;1.42;;;;;;;4.09;100.00;102036.69;5242365;28;20507;-78
2021/10/24 02:22:26;;;;;;;4.82;1.40;;;;;;;4.11;100.00;102036.72;5242145;28;20027;-78
2021/10/24 02:24:56;;;;;;;3.17;1.55;;;;;;;4.20;100.00;102040.28;5241884;28;20419;-78
2021/10/24 02:27:26;;;;;;;6.25;1.88;;;;;;;4.16;100.00;102038.50;5241713;28;20030;-78
2021/10/24 02:29:57;;;;;;;7.95;1.60;;;;;;;3.98;100.00;102038.25;5241816;28;20475;-78
2021/10/24 02:32:27;;;;;;;5.10;1.80;;;;;;;3.98;100.00;102035.66;5239044;28;20027;-78
2021/10/24 02:34:58;;;;;;;6.80;1.70;;;;;;;4.01;100.00;102033.13;5241353;28;20568;-78
2021/10/24 02:37:28;;;;;;;6.38;1.60;;;;;;;3.96;100.00;102026.16;5242180;28;20084;-78
2021/10/24 02:39:58;;;;;;;3.90;1.67;;;;;;;3.92;100.00;102030.41;5241810;28;20094;-78
2021/10/24 02:42:29;;;;;;;7.72;1.60;;;;;;;3.99;100.00;102041.72;5241808;28;20067;-78
2021/10/24 02:44:59;;;;;;;8.27;1.90;;;;;;;4.11;100.00;102029.81;5242615;28;20112;-79
2021/10/24 02:47:29;;;;;;;6.55;1.70;;;;;;;4.15;100.00;102030.72;5241475;28;20475;-78
2021/10/24 02:50:00;;;;;;;5.00;1.98;;;;;;;4.08;100.00;102028.88;5241821;28;20024;-78
2021/10/24 02:52:31;;;;;;;5.03;1.73;;;;;;;4.15;100.00;102026.41;5242522;28;20021;-78
2021/10/24 02:55:03;;;;;;;4.82;1.85;;;;;;;4.10;100.00;102025.47;5242148;28;20373;-78
2021/10/24 02:57:33;;;;;;;8.35;1.65;;;;;;;4.20;100.00;102014.41;5241656;28;20024;-78
2021/10/24 03:00:05;;;;;;;3.10;1.50;;;;;;;4.21;100.00;102018.75;5242163;28;20024;-78
2021/10/24 03:02:36;;;;;;;5.93;1.67;;;;;;;4.25;100.00;102017.03;5241786;28;20036;-78
2021/10/24 03:05:08;;;;;;;4.43;1.70;;;;;;;4.35;100.00;102016.31;5239542;28;20479;-77
2021/10/24 03:07:38;;;;;;;5.22;1.50;;;;;;;4.33;100.00;102021.47;5240701;28;20097;-79
2021/10/24 03:10:09;;;;;;;5.80;2.05;;;;;;;4.29;100.00;102024.88;5240527;28;20033;-77
2021/10/24 03:12:39;;;;;;;4.18;1.50;;;;;;;4.23;100.00;102014.47;5241247;28;20066;-78
2021/10/24 03:15:10;;;;;;;5.82;2.20;;;;;;;4.34;100.00;102018.06;5241022;28;20480;-78
2021/10/24 03:17:40;;;;;;;3.33;1.40;;;;;;;4.20;100.00;102019.59;5241472;28;20486;-77
2021/10/24 03:20:11;;;;;;;4.22;1.60;;;;;;;4.06;100.00;102023.72;5241020;28;20032;-78
2021/10/24 03:22:41;;;;;;;4.50;1.90;;;;;;;4.11;100.00;102022.03;5241175;28;20496;-77
2021/10/24 03:25:11;;;;;;;3.28;1.48;;;;;;;4.01;100.00;102022.78;5241271;28;20033;-78
2021/10/24 03:27:41;;;;;;;5.65;1.75;;;;;;;4.15;100.00;102015.22;5240811;28;20039;-77
2021/10/24 03:30:12;;;;;;;5.32;1.55;;;;;;;4.11;100.00;102019.47;5241403;28;20036;-77
2021/10/24 03:32:42;;;;;;;5.82;1.70;;;;;;;4.00;100.00;102021.06;5240640;28;20566;-78
2021/10/24 03:35:13;;;;;;;5.47;1.45;;;;;;;4.08;100.00;102019.41;5241299;28;20032;-77
2021/10/24 03:37:44;;;;;;;5.10;1.63;;;;;;;3.99;100.00;102018.44;5241419;28;20081;-77
2021/10/24 03:40:14;;;;;;;6.40;1.77;;;;;;;3.97;100.00;102023.56;5241149;28;20115;-76
2021/10/24 03:42:44;;;;;;;4.80;1.83;;;;;;;3.89;100.00;102021.72;5241061;28;20480;-77
2021/10/24 03:45:15;;;;;;;3.40;1.70;;;;;;;3.84;100.00;102024.25;5243354;28;20024;-77
2021/10/24 03:47:45;;;;;;;4.43;1.73;;;;;;;3.83;100.00;102022.53;5244885;28;20474;-79
2021/10/24 03:50:16;;;;;;;3.60;1.70;;;;;;;3.75;100.00;102023.25;5245087;28;20028;-79
2021/10/24 03:52:47;;;;;;;4.65;1.75;;;;;;;3.75;100.00;102023.25;5244958;28;20096;-78
2021/10/24 03:55:17;;;;;;;5.40;1.60;;;;;;;3.58;100.00;102024.72;5244565;28;20107;-79
2021/10/24 03:57:48;;;;;;;4.07;1.55;;;;;;;3.59;100.00;102026.47;5243716;28;20139;-78
2021/10/24 04:00:18;;;;;;;7.63;1.63;;;;;;;3.62;100.00;102018.75;5244728;28;20024;-77
2021/10/24 04:02:54;;;;;;;4.05;1.90;;;;;;;3.63;100.00;102023.06;5227066;28;20028;-77
2021/10/24 04:05:26;;;;;;;7.47;1.90;;;;;;;3.56;100.00;102025.53;5230362;28;20032;-77
2021/10/24 04:07:56;;;;;;;4.22;1.50;;;;;;;3.51;100.00;102020.28;5242736;28;20060;-78
2021/10/24 04:10:27;;;;;;;3.65;1.60;;;;;;;3.57;100.00;102022.09;5244322;28;20052;-77
2021/10/24 04:12:58;;;;;;;3.30;1.73;;;;;;;3.49;100.00;102015.91;5244059;28;20055;-77
2021/10/24 04:15:28;;;;;;;6.43;1.80;;;;;;;3.66;100.00;102017.94;5243847;28;20441;-77
2021/10/24 04:17:58;;;;;;;5.07;1.95;;;;;;;3.53;100.00;102017.72;5243617;28;20056;-77
2021/10/24 04:20:29;;;;;;;4.25;1.60;;;;;;;3.50;100.00;102015.97;5244215;28;20041;-79
2021/10/24 04:22:59;;;;;;;4.22;1.85;;;;;;;3.60;100.00;102015.28;5243987;28;20536;-78
2021/10/24 04:25:29;;;;;;;4.10;1.90;;;;;;;3.70;100.00;102014.53;5233839;28;20027;-76
2021/10/24 04:28:00;;;;;;;5.00;1.83;;;;;;;3.55;100.00;102022.06;5243542;28;20028;-77
2021/10/24 04:30:30;;;;;;;5.75;2.00;;;;;;;3.51;100.00;102016.84;5244086;28;20035;-77
2021/10/24 04:33:00;;;;;;;7.47;1.88;;;;;;;3.53;100.00;102016.00;5243747;28;20016;-77
2021/10/24 04:35:31;;;;;;;6.75;1.70;;;;;;;3.47;100.00;102018.50;5243744;28;20025;-76
2021/10/24 04:38:01;;;;;;;4.15;1.95;;;;;;;3.56;100.00;102015.19;5243809;28;20507;-79
2021/10/24 04:40:32;;;;;;;4.47;1.67;;;;;;;3.55;100.00;102008.28;5243959;28;20024;-78
2021/10/24 04:43:02;;;;;;;5.90;1.92;;;;;;;3.57;100.00;102006.59;5243573;28;20027;-78
2021/10/24 04:45:35;;;;;;;4.65;1.80;;;;;;;3.63;100.00;102008.41;5243434;28;20595;-76
2021/10/24 04:48:05;;;;;;;5.00;1.75;;;;;;;3.63;100.00;102003.22;5243527;28;20043;-77
2021/10/24 04:50:35;;;;;;;3.28;1.70;;;;;;;3.70;100.00;102004.19;5243447;28;20036;-76
2021/10/24 04:53:07;;;;;;;4.72;1.80;;;;;;;3.57;100.00;101996.25;5242758;28;20031;-78
2021/10/24 04:55:37;;;;;;;5.57;2.03;;;;;;;3.56;100.00;101989.34;5242776;28;20033;-80
2021/10/24 04:58:07;;;;;;;8.02;1.95;;;;;;;3.35;100.00;101995.03;5243217;28;20073;-76
2021/10/24 05:00:38;;;;;;;4.68;1.80;;;;;;;3.32;100.00;101997.56;5243090;28;20032;-78
2021/10/24 05:03:08;;;;;;;5.07;1.80;;;;;;;3.36;100.00;101996.78;5243397;28;20104;-78
2021/10/24 05:05:39;;;;;;;4.93;1.95;;;;;;;3.37;100.00;101995.06;5242819;28;20036;-76
2021/10/24 05:08:09;;;;;;;3.72;1.63;;;;;;;3.39;100.00;101998.53;5243208;28;20531;-77
2021/10/24 05:10:43;;;;;;;3.72;1.80;;;;;;;3.33;100.00;101990.72;5243328;28;20032;-77
2021/10/24 05:13:13;;;;;;;4.80;2.05;;;;;;;3.35;100.00;102001.94;5243146;28;20115;-79
2021/10/24 05:15:43;;;;;;;3.50;1.77;;;;;;;3.38;100.00;101997.66;5242603;28;20115;-77
2021/10/24 05:18:14;;;;;;;4.75;1.77;;;;;;;3.35;100.00;101994.19;5242636;28;20495;-78
2021/10/24 05:20:44;;;;;;;5.95;2.17;;;;;;;3.31;100.00;101987.19;5243014;28;20017;-77
2021/10/24 05:23:15;;;;;;;6.57;2.10;;;;;;;3.37;100.00;101982.16;5243372;28;20020;-79
2021/10/24 05:25:45;;;;;;;5.13;1.98;;;;;;;3.27;100.00;101995.75;5242197;28;20030;-77
2021/10/24 05:28:15;;;;;;;4.95;1.58;;;;;;;3.21;100.00;101993.94;5242843;28;20028;-79
2021/10/24 05:30:46;;;;;;;4.57;2.00;;;;;;;3.18;100.00;101990.47;5242332;28;20024;-77
2021/10/24 05:33:16;;;;;;;3.15;1.60;;;;;;;3.20;100.00;101983.59;5242802;28;20104;-78
2021/10/24 05:35:47;;;;;;;5.82;1.88;;;;;;;3.30;100.00;101980.31;5242123;28;20055;-77
2021/10/24 05:38:17;;;;;;;4.80;1.90;;;;;;;3.38;100.00;101979.56;5242421;28;20027;-77
2021/10/24 05:40:49;;;;;;;4.82;1.67;;;;;;;3.41;100.00;101990.00;5242796;28;20039;-80
2021/10/24 05:43:19;;;;;;;6.57;2.00;;;;;;;3.35;100.00;101981.28;5238395;28;20028;-78
2021/10/24 05:45:50;;;;;;;6.20;1.60;;;;;;;3.42;100.00;101985.66;5232512;28;20039;-77
2021/10/24 05:48:20;;;;;;;4.72;1.60;;;;;;;3.51;100.00;101983.25;5241684;28;20024;-77
2021/10/24 05:50:51;;;;;;;5.03;2.00;;;;;;;3.56;100.00;101982.44;5241747;28;20024;-77
2021/10/24 05:53:22;;;;;;;5.75;2.15;;;;;;;3.60;100.00;101979.94;5242091;28;20051;-77
2021/10/24 05:55:52;;;;;;;11.18;2.00;;;;;;;3.63;100.00;101977.38;5241674;28;20028;-77
2021/10/24 05:58:22;;;;;;;3.60;1.67;;;;;;;3.70;100.00;101981.81;5241718;28;20097;-79
2021/10/24 06:00:52;;;;;;;3.78;1.67;;;;;;;3.79;100.00;101974.19;5241515;28;20060;-77
2021/10/24 06:03:23;;;;;;;6.25;2.17;;;;;;;3.84;100.00;101977.72;5242492;28;20035;-76
2021/10/24 06:05:53;;;;;;;4.40;1.60;;;;;;;3.81;100.00;101969.91;5241587;28;20511;-77
2021/10/24 06:08:23;;;;;;;5.47;1.92;;;;;;;3.89;100.00;101968.31;5241817;28;20407;-78
2021/10/24 06:11:02;;;;;;;6.47;1.98;;;;;;;3.81;100.00;101976.81;5242472;28;20092;-77
2021/10/24 06:13:32;;;;;;;5.95;1.70;;;;;;;3.82;100.00;101976.81;5242365;28;20052;-77
2021/10/24 06:16:03;;;;;;;7.47;1.75;;;;;;;3.77;100.00;101970.72;5242185;28;20549;-78
2021/10/24 06:18:33;;;;;;;5.35;1.60;;;;;;;3.81;100.00;101969.91;5242090;28;20033;-78
2021/10/24 06:21:05;;;;;;;4.18;1.58;;;;;;;3.75;100.00;101974.13;5242294;28;20389;-76
2021/10/24 06:23:35;;;;;;;4.80;1.80;;;;;;;3.87;100.00;101961.38;5241959;28;20032;-77
2021/10/24 06:26:06;;;;;;;7.75;2.35;;;;;;;3.80;100.00;101965.56;5241924;28;20104;-78
2021/10/24 06:28:37;;;;;;;4.60;1.83;;;;;;;3.88;100.00;101968.28;5242034;28;20082;-78
2021/10/24 06:31:07;;;;;;;6.00;2.00;;;;;;;4.09;100.00;101968.56;5238308;28;20021;-78
2021/10/24 06:33:37;;;;;;;4.22;1.58;;;;;;;4.09;100.00;101969.44;5241817;28;20028;-80
2021/10/24 06:36:08;;;;;;;4.45;1.90;;;;;;;4.19;100.00;101954.88;5241512;28;20033;-77
2021/10/24 06:38:38;;;;;;;3.63;1.70;;;;;;;4.27;100.00;101969.66;5242207;28;20400;-79
2021/10/24 06:41:08;;;;;;;5.90;2.40;;;;;;;4.33;100.00;101969.72;5242047;28;20516;-78
2021/10/24 06:43:38;;;;;;;6.22;1.90;;;;;;;4.21;100.00;101972.19;5242055;28;20101;-77
2021/10/24 06:46:09;;;;;;;6.10;1.90;;;;;;;4.39;100.00;101974.97;5241618;28;20024;-76
2021/10/24 06:48:39;;;;;;;8.30;2.17;;;;;;;4.45;100.00;101969.88;5241932;28;20028;-77
2021/10/24 06:51:09;;;;;;;3.17;1.88;;;;;;;4.65;100.00;101970.09;5241758;28;20031;-77
2021/10/24 06:53:40;;;;;;;5.40;2.53;;;;;;;4.68;100.00;101967.53;5241329;28;20032;-78
2021/10/24 06:56:10;;;;;;;6.72;1.95;;;;;;;4.65;100.00;101978.72;5241290;28;20024;-78
2021/10/24 06:58:40;;;;;;;5.25;1.90;;;;;;;4.88;100.00;101985.03;5241103;28;20025;-78
2021/10/24 07:01:11;;;;;;;8.38;2.28;;;;;;;4.87;100.00;101979.81;5241601;28;20630;-78
2021/10/24 07:03:41;;;;;;;5.28;1.75;;;;;;;4.88;100.00;101979.84;5241735;28;20029;-78
2021/10/24 07:06:12;;;;;;;5.18;1.60;;;;;;;4.85;100.00;101977.22;5241536;28;20029;-77
2021/10/24 07:08:42;;;;;;;5.38;1.90;;;;;;;4.92;100.00;101976.41;5241920;28;20029;-79
2021/10/24 07:11:12;;;;;;;6.60;2.30;;;;;;;4.91;100.00;101972.09;5241779;28;20381;-78
2021/10/24 07:13:43;;;;;;;7.28;2.00;;;;;;;5.02;100.00;101975.66;5241916;28;20024;-78
2021/10/24 07:16:13;;;;;;;4.07;2.08;;;;;;;4.99;100.00;101974.75;5241719;28;20424;-78
2021/10/24 07:18:43;;;;;;;4.65;1.92;;;;;;;5.24;100.00;101974.97;5243911;28;20039;-78
2021/10/24 07:21:14;;;;;;;5.55;1.90;;;;;;;5.42;100.00;101968.19;5245361;28;20040;-78
2021/10/24 07:23:44;;;;;;;4.53;1.80;;;;;;;5.49;100.00;101976.91;5245133;28;20487;-77
2021/10/24 07:26:14;;;;;;;6.13;1.92;;;;;;;5.62;100.00;101982.19;5245256;28;20024;-77
2021/10/24 07:28:44;;;;;;;5.28;2.30;;;;;;;5.81;100.00;101973.72;5245459;28;20056;-77
2021/10/24 07:31:15;;;;;;;4.57;1.75;;;;;;;5.85;100.00;101970.28;5245220;28;20024;-79
2021/10/24 07:33:45;;;;;;;5.75;1.90;;;;;;;6.22;100.00;101977.38;5244816;28;20032;-81
2021/10/24 07:36:16;;;;;;;6.07;2.00;;;;;;;6.29;100.00;101967.88;5243432;28;20647;-77
2021/10/24 07:38:46;;;;;;;8.25;1.90;;;;;;;6.31;100.00;101967.03;5244592;28;20032;-77
2021/10/24 07:41:16;;;;;;;4.55;1.67;;;;;;;6.37;100.00;101956.66;5245417;28;20029;-77
2021/10/24 07:43:47;;;;;;;4.63;1.60;;;;;;;6.91;100.00;101958.53;5244932;28;20028;-78
2021/10/24 07:46:17;;;;;;;6.18;1.80;;;;;;;8.00;100.00;101959.31;5245093;28;20028;-78
2021/10/24 07:48:47;;;;;;;4.45;1.60;;;;;;;9.20;94.06;101956.06;5245217;28;20048;-81
2021/10/24 07:51:19;;;;;;;6.28;1.40;;;;;;;10.70;83.17;101943.97;5244797;28;20128;-79
2021/10/24 07:53:50;;;;;;;6.68;1.70;;;;;;;10.14;86.43;101943.84;5244710;28;20111;-80
2021/10/24 07:56:22;;;;;;;6.03;1.63;;;;;;;9.66;88.48;101946.94;5243573;28;20024;-79
2021/10/24 07:58:52;;;;;;;5.00;1.40;;;;;;;9.73;88.35;101946.88;5244514;28;20029;-78
2021/10/24 08:01:23;;;;;;;4.15;1.60;;;;;;;10.30;86.00;101940.13;5245044;28;20027;-78
2021/10/24 08:03:53;;;;;;;5.15;1.67;;;;;;;10.28;85.00;101939.28;5243931;28;20097;-78
2021/10/24 08:06:24;;;;;;;5.63;1.42;;;;;;;11.11;83.83;101935.44;5244725;28;20028;-78
2021/10/24 08:08:54;;;;;;;6.90;1.60;;;;;;;12.39;79.18;101931.31;5244695;28;20471;-80
2021/10/24 08:11:24;;;;;;;3.75;1.52;;;;;;;13.02;76.29;101922.00;5244202;28;20582;-78
2021/10/24 08:13:56;;;;;;;8.35;1.42;;;;;;;14.52;70.56;101915.25;5242901;28;20458;-79
2021/10/24 08:16:26;;;;;;;4.43;1.40;;;;;;;14.41;71.39;101907.69;5243722;28;20031;-78
2021/10/24 08:18:57;;;;;;;3.58;1.48;;;;;;;15.36;69.00;101914.25;5244533;28;20100;-80
2021/10/24 08:21:27;;;;;;;3.40;1.30;;;;;;;14.73;70.09;101917.25;5244670;28;20448;-78
2021/10/24 08:23:58;;;;;;;4.78;1.30;;;;;;;15.46;66.15;101909.53;5244085;28;20502;-78
2021/10/24 08:26:30;;;;;;;2.45;1.20;;;;;;;14.70;69.47;101906.78;5240044;28;20074;-81
2021/10/24 08:29:01;;;;;;;4.68;1.48;;;;;;;14.95;67.56;101916.50;5240650;28;20055;-80
2021/10/24 08:31:33;;;;;;;4.15;1.58;;;;;;;14.56;68.88;101901.97;5244123;28;20051;-79
2021/10/24 08:34:04;;;;;;;3.92;1.40;;;;;;;14.64;69.16;101899.97;5241297;28;20602;-80
2021/10/24 08:36:34;;;;;;;5.97;2.03;;;;;;;13.85;73.24;101907.56;5225435;28;20127;-80
2021/10/24 08:39:05;;;;;;;3.40;1.42;;;;;;;13.45;74.17;101912.16;5238455;28;20441;-78
2021/10/24 08:41:38;;;;;;;4.93;1.52;;;;;;;13.15;74.81;101903.31;5241675;28;20039;-80
2021/10/24 08:44:08;;;;;;;4.63;2.03;;;;;;;12.19;78.46;101895.91;5238604;28;20127;-78
2021/10/24 08:46:39;;;;;;;6.78;1.73;;;;;;;11.76;80.57;101901.16;5238219;28;20111;-78
2021/10/24 08:49:09;;;;;;;4.63;1.98;;;;;;;10.86;85.61;101901.00;5242785;28;20024;-78
2021/10/24 08:51:40;;;;;;;5.10;2.08;;;;;;;10.21;87.93;101906.28;5239915;28;20116;-81
2021/10/24 08:54:11;;;;;;;6.25;1.92;;;;;;;10.08;90.43;101909.94;5239862;28;20043;-79
2021/10/24 08:56:41;;;;;;;7.75;2.13;;;;;;;10.09;90.83;101903.81;5242992;28;20044;-77
2021/10/24 08:59:11;;;;;;;5.57;2.00;;;;;;;9.92;90.13;101905.75;5294143;22;20487;-80
2021/10/24 09:01:53;;;;;;;6.10;2.00;;;;;;;10.14;90.81;101899.44;5290423;28;20059;-80
2021/10/24 09:04:23;;;;;;;3.55;1.70;;;;;;;10.25;89.99;101894.91;5269113;28;20019;-80
2021/10/24 09:06:55;;;;;;;5.72;1.95;;;;;;;10.28;89.10;101895.75;5267742;28;20030;-79
2021/10/24 09:09:31;;;;;;;5.03;1.90;;;;;;;10.64;89.13;101889.13;5274297;28;20032;-80
2021/10/24 09:12:06;;;;;;;5.07;1.77;;;;;;;10.48;87.79;101883.25;5271491;28;20035;-80
2021/10/24 09:14:52;;;;;;;3.85;1.63;;;;;;;10.54;89.30;101891.00;5290938;27;20028;-81
2021/10/24 09:17:25;;;;;;;;;;;;;;;10.42;87.24;101883.34;5275380;28;20032;-80
2021/10/24 09:20:00;;;;;;;6.35;1.63;;;;;;;10.41;87.39;101878.13;5272769;27;19947;-79
2021/10/24 09:22:39;;;;;;;7.20;1.70;;;;;;;10.52;86.89;101873.63;5272832;27;20036;-80
2021/10/24 09:25:12;;;;;;;8.57;1.60;;;;;;;10.78;86.62;101877.59;5276415;28;20016;-81
2021/10/24 09:27:45;;;;;;;5.00;1.58;;;;;;;10.72;85.84;101866.34;5267249;28;21085;-82
2021/10/24 09:30:17;;;;;;;7.22;1.55;;;;;;;10.61;84.74;101868.25;5268040;28;20088;-82
2021/10/24 09:32:57;;;;;;;6.43;1.48;;;;;;;10.66;85.67;101861.22;5286181;28;20322;-82
2021/10/24 09:35:37;;;;;;;4.35;1.35;;;;;;;10.70;86.56;101855.91;5270998;28;20020;-83
2021/10/24 09:38:14;;;;;;;5.78;1.50;;;;;;;10.86;86.00;101865.22;5271968;28;20103;-82
2021/10/24 09:40:54;;;;;;;6.93;1.60;;;;;;;10.86;83.20;101859.16;5274127;28;20407;-82
2021/10/24 09:43:30;;;;;;;3.95;1.30;;;;;;;11.02;83.95;101860.63;5279853;28;20035;-82
2021/10/24 09:46:02;;;;;;;5.30;1.38;;;;;;;10.94;86.00;101868.59;5268829;28;20053;-82
2021/10/24 09:48:34;;;;;;;3.42;1.30;;;;;;;10.70;83.45;101857.66;5274777;28;20031;-82
2021/10/24 09:51:13;;;;;;;3.65;1.40;;;;;;;10.80;84.23;101856.63;5276951;28;20015;-82
2021/10/24 09:53:47;;;;;;;4.30;1.50;;;;;;;11.03;84.92;101850.13;5274544;28;20297;-82
2021/10/24 09:56:19;;;;;;;6.80;1.42;;;;;;;10.98;84.34;101843.25;5278017;28;20106;-82
2021/10/24 09:58:53;;;;;;;2.63;1.50;;;;;;;11.11;84.77;101850.88;5273532;28;20032;-82
2021/10/24 10:01:23;;;;;;;5.75;1.50;;;;;;;11.12;84.05;101836.91;5270547;28;20135;-82
2021/10/24 10:03:53;;;;;;;4.55;1.27;;;;;;;11.17;83.04;101837.66;5271296;28;20314;-83
2021/10/24 10:06:24;;;;;;;4.38;1.38;;;;;;;11.18;82.30;101842.88;5270228;28;20573;-82
2021/10/24 10:08:56;;;;;;;6.60;1.70;;;;;;;11.05;83.31;101835.25;5271317;28;20027;-82
2021/10/24 10:11:36;;;;;;;3.97;1.45;;;;;;;11.22;83.13;101831.47;5268759;28;20024;-82
2021/10/24 10:14:09;;;;;;;5.75;1.50;;;;;;;11.15;82.70;101832.47;5263255;28;20035;-82
2021/10/24 10:16:41;;;;;;;3.45;1.10;;;;;;;11.09;82.40;101832.56;5277326;28;20173;-82
2021/10/24 10:19:13;;;;;;;4.18;1.30;;;;;;;10.94;81.76;101836.34;5278289;28;20412;-81
2021/10/24 10:21:47;;;;;;;5.15;1.20;;;;;;;11.08;82.82;101823.00;5273773;28;20201;-80
2021/10/24 10:24:36;;;;;;;3.58;1.45;;;;;;;11.40;84.08;101823.28;5274744;28;20027;-82
2021/10/24 10:27:29;;;;;;;5.85;1.73;;;;;;;11.39;82.36;101811.09;5277724;28;20035;-83
2021/10/24 10:30:09;;;;;;;5.47;1.38;;;;;;;11.42;84.31;101824.09;5263125;28;20502;-81
2021/10/24 10:32:44;;;;;;;4.95;1.17;;;;;;;11.54;82.96;101805.56;5267980;28;20032;-83
2021/10/24 10:35:17;;;;;;;3.88;1.20;;;;;;;11.45;83.62;101805.72;5275464;28;20026;-81
2021/10/24 10:38:03;;;;;;;7.60;1.80;;;;;;;11.60;83.41;101797.59;5274489;28;20038;-82
2021/10/24 10:40:39;;;;;;;3.03;1.30;;;;;;;11.47;82.94;101798.69;5276135;28;20023;-83
2021/10/24 10:43:27;;;;;;;4.22;1.17;;;;;;;11.59;81.22;101795.03;5276345;28;20024;-83
2021/10/24 10:46:00;;;;;;;3.70;1.20;;;;;;;11.60;80.95;101789.75;5277473;28;20063;-81
2021/10/24 10:48:44;;;;;;;4.00;1.25;;;;;;;11.63;81.13;101779.19;5275606;28;20549;-81
2021/10/24 10:51:23;;;;;;;4.13;1.25;;;;;;;11.66;82.32;101784.41;5270734;28;20706;-81
2021/10/24 10:54:03;;;;;;;4.13;1.10;;;;;;;11.78;81.84;101776.25;5272497;28;20719;-82
2021/10/24 10:56:53;;;;;;;3.05;1.30;;;;;;;11.83;78.37;101778.78;5275795;28;20031;-81
2021/10/24 10:59:32;;;;;;;5.43;1.10;;;;;;;11.80;76.64;101776.25;5281846;28;20052;-81
2021/10/24 11:02:21;;;;;;;3.25;1.02;;;;;;;12.03;78.66;101769.59;5281820;28;20028;-81
2021/10/24 11:05:00;;;;;;;3.35;0.80;;;;;;;12.11;76.87;101770.28;5280066;28;20027;-82
2021/10/24 11:07:42;;;;;;;2.03;0.80;;;;;;;12.18;77.23;101774.50;5273036;28;20479;-82
2021/10/24 11:10:42;;;;;;;4.03;1.10;;;;;;;12.12;77.25;101768.53;5273561;28;20016;-82
2021/10/24 11:13:31;;;;;;;4.75;1.15;;;;;;;12.07;78.53;101763.41;5283324;28;20024;-83
2021/10/24 11:16:29;;;;;;;3.35;1.17;;;;;;;12.08;76.81;101759.88;5272674;28;20027;-81
2021/10/24 11:19:00;;;;;;;3.55;0.90;;;;;;;12.14;76.10;101764.97;5282504;28;20016;-82
2021/10/24 11:21:31;;;;;;;6.97;1.20;;;;;;;12.18;76.28;101758.78;5278897;28;20411;-82
2021/10/24 11:24:01;;;;;;;3.25;1.13;;;;;;;12.18;77.42;101758.78;5269539;28;20108;-82
2021/10/24 11:26:32;;;;;;;3.00;1.10;;;;;;;12.13;77.20;101755.38;5273191;28;20516;-81
2021/10/24 11:29:05;;;;;;;4.63;1.13;;;;;;;12.14;77.11;101753.63;5270740;28;20717;-81
2021/10/24 11:31:35;;;;;;;4.35;1.27;;;;;;;12.17;77.92;101746.56;5272389;28;20015;-82
2021/10/24 11:34:05;;;;;;;5.13;1.27;;;;;;;12.22;79.73;101749.06;5276252;28;20016;-80
2021/10/24 11:36:45;;;;;;;3.78;1.10;;;;;;;12.25;77.88;101739.38;5272640;28;20032;-81
2021/10/24 11:39:23;;;;;;;4.78;1.05;;;;;;;12.37;79.87;101752.19;5277189;28;20746;-82
2021/10/24 11:42:07;;;;;;;3.22;1.10;;;;;;;12.12;76.16;101740.56;5276309;28;20108;-81
2021/10/24 11:44:38;;;;;;;3.08;1.10;;;;;;;12.31;77.63;101735.75;5272104;28;20031;-82
2021/10/24 11:47:09;;;;;;;3.38;1.10;;;;;;;12.30;77.60;101740.13;5276410;28;20089;-82
2021/10/24 11:49:52;;;;;;;2.83;0.85;;;;;;;12.32;74.61;101734.84;5278209;28;20082;-81